Time;durP1;ratioP1;P1;durP2;ratioP2;P2;SDS_P1;SDS_P2;PMS_P1;PMS_P2;Temp;Humidity;BMP_temperature;BMP_pressure;BME280_temperature;BME280_humidity;BME280_pressure;Samples;Min_cycle;Max_cycle;Signal;HPM_P1;HPM_P2
2022/11/07 00:03:05;;;;;;;0.70;0.70;;;;;;;11.22;69.95;100826.38;18560856;32;20419;-58
2022/11/07 00:13:10;;;;;;;2.35;1.52;;;;;;;11.05;71.05;100822.84;18560333;32;20104;-58
2022/11/07 00:23:13;;;;;;;0.52;0.52;;;;;;;11.21;70.60;100831.59;18559299;32;20157;-58
2022/11/07 00:33:18;;;;;;;1.75;1.27;;;;;;;11.23;70.53;100830.72;18559125;32;20116;-58
2022/11/07 00:43:21;;;;;;;1.98;1.87;;;;;;;11.26;70.30;100844.66;18558545;31;20375;-58
2022/11/07 00:53:26;;;;;;;0.88;0.88;;;;;;;11.36;70.21;100841.19;18558105;32;20265;-58
2022/11/07 01:13:55;;;;;;;0.40;0.40;;;;;;;11.57;70.38;100832.50;18556781;32;20399;-59
2022/11/07 01:23:59;;;;;;;0.70;0.70;;;;;;;11.79;70.07;100838.62;18555866;32;20360;-58
2022/11/07 01:34:03;;;;;;;2.03;1.87;;;;;;;11.75;70.41;100842.09;18555618;32;20365;-58
2022/11/07 01:44:39;;;;;;;0.85;0.85;;;;;;;11.85;70.22;100836.84;18563833;32;20103;-58
2022/11/07 01:54:49;;;;;;;1.05;1.05;;;;;;;11.92;70.15;100834.25;18566032;32;20365;-58
2022/11/07 02:04:53;;;;;;;0.37;0.37;;;;;;;11.89;70.52;100841.22;18564600;32;20095;-58
2022/11/07 02:14:57;;;;;;;0.60;0.60;;;;;;;11.94;70.25;100842.97;18564284;32;20092;-58
2022/11/07 02:25:04;;;;;;;1.05;0.95;;;;;;;11.98;70.26;100846.44;18563514;31;20084;-59
2022/11/07 02:35:31;;;;;;;0.82;0.82;;;;;;;12.05;70.45;100845.62;18562217;32;20133;-59
2022/11/07 02:45:39;;;;;;;2.10;1.75;;;;;;;12.04;70.70;100843.84;18563406;32;20084;-58
2022/11/07 02:55:43;;;;;;;13.98;1.95;;;;;;;11.96;71.09;100835.12;18561457;32;20125;-58
2022/11/07 03:05:48;;;;;;;0.40;0.40;;;;;;;12.10;70.62;100843.00;18562501;32;20123;-58
2022/11/07 03:15:51;;;;;;;0.55;0.55;;;;;;;12.21;70.13;100825.53;18562282;32;20135;-58
2022/11/07 03:25:56;;;;;;;1.55;1.33;;;;;;;12.23;70.29;100819.41;18561577;31;20096;-58
2022/11/07 03:35:59;;;;;;;0.50;0.50;;;;;;;12.37;69.84;100814.13;18561779;32;20109;-59
2022/11/07 03:46:03;;;;;;;1.35;0.57;;;;;;;12.21;70.75;100829.87;18562518;32;20089;-58
2022/11/07 03:56:08;;;;;;;0.60;0.60;;;;;;;12.30;70.51;100829.84;18562134;32;20092;-58
2022/11/07 04:06:12;;;;;;;1.48;1.37;;;;;;;12.35;70.61;100821.97;18560966;32;20099;-58
2022/11/07 04:37:01;;;;;;;2.75;1.33;;;;;;;12.56;70.12;100842.00;18559175;32;20105;-59
2022/11/07 04:47:05;;;;;;;3.50;2.22;;;;;;;12.50;70.62;100842.00;18559879;31;20161;-59
2022/11/07 04:57:08;;;;;;;0.40;0.40;;;;;;;12.60;70.34;100851.56;18558021;32;20724;-58
2022/11/07 05:07:13;;;;;;;2.25;1.30;;;;;;;12.71;69.68;100835.84;18557341;32;20119;-58
2022/11/07 05:17:17;;;;;;;1.02;0.60;;;;;;;12.51;70.39;100848.13;18563083;32;20096;-58
2022/11/07 05:27:22;;;;;;;0.52;0.52;;;;;;;12.64;70.12;100849.81;18565431;32;20105;-59
2022/11/07 05:37:26;;;;;;;0.80;0.62;;;;;;;12.61;70.62;100855.97;18565238;32;20110;-59
2022/11/07 05:47:30;;;;;;;0.90;0.82;;;;;;;12.68;70.73;100855.91;18564946;32;20092;-58
2022/11/07 05:57:33;;;;;;;0.62;0.62;;;;;;;12.77;70.55;100872.50;18564526;32;20106;-58
2022/11/07 06:07:39;;;;;;;0.62;0.60;;;;;;;12.74;70.81;100882.09;18574377;31;20391;-58
2022/11/07 06:17:43;;;;;;;0.62;0.62;;;;;;;12.92;70.18;100893.41;18564007;32;20111;-58
2022/11/07 06:27:47;;;;;;;0.95;0.82;;;;;;;12.78;70.51;100917.88;18563267;32;20122;-59
2022/11/07 06:37:50;;;;;;;1.33;1.15;;;;;;;12.78;70.39;100928.34;18562854;32;20120;-59
2022/11/07 06:47:56;;;;;;;0.60;0.60;;;;;;;12.76;70.71;100931.00;18573696;31;20088;-59
2022/11/07 06:57:59;;;;;;;1.00;1.00;;;;;;;12.79;71.08;100947.59;18628371;31;20711;-59
2022/11/07 07:08:05;;;;;;;1.27;1.20;;;;;;;13.01;70.57;100949.25;18628117;31;20352;-59
2022/11/07 07:18:08;;;;;;;2.83;2.62;;;;;;;13.10;70.68;100955.34;18627563;31;20139;-58
2022/11/07 07:28:13;;;;;;;1.08;0.98;;;;;;;13.35;70.45;100960.50;18619445;31;20137;-59
2022/11/07 07:38:16;;;;;;;1.00;1.00;;;;;;;13.71;70.47;100956.81;18568686;31;20088;-59
2022/11/07 07:48:20;;;;;;;1.40;1.23;;;;;;;13.65;70.13;100979.59;18570171;31;20395;-58
2022/11/07 07:58:24;;;;;;;0.98;0.82;;;;;;;13.85;69.82;100971.63;18560824;31;20388;-60
2022/11/07 08:08:28;;;;;;;1.00;0.90;;;;;;;14.04;69.80;100971.44;18616429;31;20144;-59
2022/11/07 08:18:39;;;;;;;1.60;1.50;;;;;;;14.31;69.69;100977.38;18595372;31;20160;-59
2022/11/07 08:28:44;;;;;;;1.83;1.73;;;;;;;14.63;68.50;100978.84;18561345;31;20194;-59
2022/11/07 08:38:47;;;;;;;1.70;1.60;;;;;;;14.47;68.89;100965.84;18623866;31;20108;-59
2022/11/07 08:48:51;;;;;;;0.73;0.60;;;;;;;14.66;68.51;100957.78;18627646;31;20092;-59
2022/11/07 08:58:54;;;;;;;0.93;0.93;;;;;;;14.66;68.85;100971.81;18618278;31;20370;-59
2022/11/07 09:08:59;;;;;;;1.37;1.27;;;;;;;14.05;69.86;100965.34;18624340;31;20140;-59
2022/11/07 09:19:02;;;;;;;0.40;0.40;;;;;;;14.77;68.52;100984.00;18564902;31;36595;-59
2022/11/07 09:29:06;;;;;;;0.45;0.45;;;;;;;14.82;68.55;100987.44;18565655;32;20120;-59
2022/11/07 09:39:10;;;;;;;1.30;0.68;;;;;;;15.59;65.20;100987.41;18565166;31;20481;-59
2022/11/07 09:49:19;;;;;;;1.17;1.08;;;;;;;15.79;63.84;100990.63;18564929;32;20144;-59
2022/11/07 09:59:25;;;;;;;0.40;0.40;;;;;;;15.78;64.33;100982.75;18562585;32;20169;-59
2022/11/07 10:09:38;;;;;;;0.65;0.65;;;;;;;15.97;55.27;100975.47;18564444;31;20109;-59
2022/11/07 10:19:50;;;;;;;0.40;0.40;;;;;;;15.95;55.60;100978.16;18563871;31;20136;-59
2022/11/07 10:29:55;;;;;;;0.40;0.40;;;;;;;15.96;57.37;100971.09;18563362;32;20380;-59
2022/11/07 10:39:58;;;;;;;0.85;0.55;;;;;;;16.07;58.44;100973.56;18600221;31;20100;-59
2022/11/07 10:50:18;;;;;;;0.30;0.30;;;;;;;16.14;56.67;100967.31;18628937;31;20102;-59
2022/11/07 11:00:24;;;;;;;0.40;0.40;;;;;;;16.11;54.74;100959.44;18628394;31;20423;-59
2022/11/07 11:10:29;;;;;;;0.30;0.30;;;;;;;16.04;55.84;100949.94;18629052;31;20144;-59
2022/11/07 11:20:38;;;;;;;0.75;0.75;;;;;;;15.97;57.26;100940.38;18627548;31;20100;-59
2022/11/07 11:30:43;;;;;;;2.37;0.45;;;;;;;15.84;57.06;100924.75;18627454;31;20100;-59
2022/11/07 11:40:49;;;;;;;0.40;0.35;;;;;;;15.95;57.61;100911.44;18627312;31;20114;-59
2022/11/07 11:50:58;;;;;;;4.28;0.43;;;;;;;15.98;59.65;100921.91;18626889;31;20133;-59
2022/11/07 12:01:06;;;;;;;0.30;0.30;;;;;;;15.94;60.54;100929.03;18627423;31;20135;-59
2022/11/07 12:11:18;;;;;;;0.35;0.35;;;;;;;15.75;59.50;100917.84;18566409;31;20096;-59
2022/11/07 12:21:23;;;;;;;;;;;;;;;15.85;59.96;100912.44;18559712;31;20119;-59
2022/11/07 12:31:38;;;;;;;0.30;0.30;;;;;;;16.04;59.25;100915.69;18559458;32;20002;-59
2022/11/07 12:41:48;;;;;;;0.40;0.40;;;;;;;15.91;58.38;100910.63;18558566;32;20093;-59
2022/11/07 12:51:59;;;;;;;0.45;0.45;;;;;;;15.85;56.34;100910.69;18559551;31;20104;-59
2022/11/07 13:02:06;;;;;;;0.77;0.57;;;;;;;16.07;56.34;100918.28;18557518;31;20099;-59
2022/11/07 13:12:18;;;;;;;0.30;0.30;;;;;;;15.38;55.97;100906.12;18563605;31;20110;-60
2022/11/07 13:22:24;;;;;;;1.00;0.60;;;;;;;15.36;55.85;100891.25;18593009;31;20092;-59
2022/11/07 13:32:38;;;;;;;0.40;0.40;;;;;;;15.62;54.21;100898.75;18581703;31;20104;-59
2022/11/07 13:42:42;;;;;;;0.30;0.30;;;;;;;15.72;54.42;100894.22;18566981;31;20104;-59
2022/11/07 13:52:54;;;;;;;0.30;0.30;;;;;;;15.86;54.21;100894.00;18601644;31;20396;-59
2022/11/07 14:02:59;;;;;;;0.30;0.30;;;;;;;15.36;55.06;100886.84;18630014;31;20338;-59
2022/11/07 14:13:06;;;;;;;0.30;0.30;;;;;;;15.29;55.65;100890.47;18629727;31;20100;-59
2022/11/07 14:23:12;;;;;;;0.57;0.43;;;;;;;15.07;56.67;100896.00;18627395;31;20537;-59
2022/11/07 14:33:19;;;;;;;0.40;0.40;;;;;;;14.78;56.99;100912.16;18607997;31;20132;-59
2022/11/07 14:43:24;;;;;;;0.30;0.30;;;;;;;15.48;55.32;100903.38;18613879;31;20406;-59
2022/11/07 14:53:31;;;;;;;0.50;0.45;;;;;;;15.73;55.40;100917.03;18628088;31;20092;-59
2022/11/07 15:03:37;;;;;;;0.30;0.30;;;;;;;15.79;56.65;100923.94;18627554;31;20106;-59
2022/11/07 15:13:42;;;;;;;0.30;0.30;;;;;;;15.63;57.82;100915.44;18628234;31;20360;-59
2022/11/07 15:23:45;;;;;;;1.12;0.80;;;;;;;15.13;58.25;100921.37;18617236;31;20119;-59
2022/11/07 15:33:50;;;;;;;0.50;0.50;;;;;;;14.86;59.10;100922.56;18561549;32;20107;-59
2022/11/07 15:43:53;;;;;;;0.40;0.40;;;;;;;14.47;60.29;100930.84;18560857;32;20419;-59
2022/11/07 15:53:58;;;;;;;0.73;0.73;;;;;;;13.86;61.65;100932.22;18546557;32;20443;-59
2022/11/07 16:04:01;;;;;;;0.40;0.40;;;;;;;13.64;61.71;100934.09;18545969;32;20096;-59
2022/11/07 16:14:07;;;;;;;1.98;1.17;;;;;;;13.33;62.21;100944.75;18571669;31;20462;-59
2022/11/07 16:24:31;;;;;;;0.65;0.65;;;;;;;12.89;62.97;100949.28;18540571;31;153582;-59
2022/11/07 16:34:35;;;;;;;1.33;1.23;;;;;;;12.60;63.74;100956.34;18560311;32;20169;-59
2022/11/07 16:44:38;;;;;;;0.40;0.40;;;;;;;12.28;63.94;100957.25;18544158;32;20183;-59
2022/11/07 16:54:43;;;;;;;0.50;0.50;;;;;;;11.99;64.16;100965.94;18559344;32;20626;-58
2022/11/07 17:04:46;;;;;;;0.50;0.50;;;;;;;11.84;64.52;100977.25;18553145;31;20141;-58
2022/11/07 17:14:51;;;;;;;1.00;1.00;;;;;;;11.51;65.06;100984.12;18631036;31;20122;-58
2022/11/07 17:24:54;;;;;;;0.47;0.47;;;;;;;11.32;65.10;100991.91;18631155;31;20084;-58
2022/11/07 17:34:59;;;;;;;0.50;0.50;;;;;;;11.10;65.35;101001.41;18631455;31;20087;-58
2022/11/07 17:45:22;;;;;;;1.30;1.20;;;;;;;10.81;65.43;101021.25;18630869;31;20119;-58
2022/11/07 17:55:29;;;;;;;2.35;2.15;;;;;;;10.52;66.06;101027.13;18616383;31;20403;-58
2022/11/07 18:05:33;;;;;;;1.30;1.20;;;;;;;10.45;65.83;101034.91;18629996;31;20133;-58
2022/11/07 18:15:38;;;;;;;2.95;1.98;;;;;;;10.04;66.54;101036.22;18616257;31;20499;-61
2022/11/07 18:25:42;;;;;;;5.47;3.75;;;;;;;10.10;66.39;101034.56;18628743;31;20136;-58
2022/11/07 18:35:47;;;;;;;3.92;2.08;;;;;;;10.07;66.13;101029.31;18607328;31;20139;-59
2022/11/07 18:45:50;;;;;;;6.57;5.10;;;;;;;9.93;66.29;101028.28;18593157;31;20110;-59
2022/11/07 18:55:58;;;;;;;0.70;0.70;;;;;;;9.60;67.03;101032.28;18604946;31;20088;-59
2022/11/07 19:06:04;;;;;;;0.90;0.90;;;;;;;9.42;66.25;101031.19;18618556;31;20159;-59
2022/11/07 19:16:10;;;;;;;1.15;1.10;;;;;;;9.27;66.55;101024.06;18576751;31;20092;-58
2022/11/07 19:26:14;;;;;;;0.52;0.52;;;;;;;9.18;66.26;101032.59;18578160;31;20153;-59
2022/11/07 19:36:20;;;;;;;0.68;0.68;;;;;;;8.82;66.74;101046.81;18567001;31;20144;-59
2022/11/07 19:46:23;;;;;;;0.50;0.50;;;;;;;8.80;66.71;101038.13;18607382;31;20346;-59
2022/11/07 19:56:30;;;;;;;0.70;0.70;;;;;;;8.62;66.54;101042.19;18595725;31;20092;-59
2022/11/07 20:06:35;;;;;;;0.60;0.60;;;;;;;8.68;66.14;101054.41;18607867;31;20084;-60
2022/11/07 20:16:40;;;;;;;0.90;0.90;;;;;;;8.46;66.29;101065.34;18605589;31;20084;-59
2022/11/07 20:26:44;;;;;;;0.77;0.77;;;;;;;8.26;66.35;101077.13;18565404;31;20122;-60
2022/11/07 20:36:52;;;;;;;2.42;2.28;;;;;;;8.21;67.22;101082.25;18584410;31;20403;-59
2022/11/07 20:46:56;;;;;;;0.65;0.65;;;;;;;8.16;67.30;101076.06;18583923;31;20100;-59
2022/11/07 20:57:02;;;;;;;0.82;0.82;;;;;;;8.10;66.70;101066.44;18595707;31;20115;-59
2022/11/07 21:07:05;;;;;;;2.12;2.03;;;;;;;7.98;66.61;101067.06;18576720;31;20100;-59
2022/11/07 21:17:11;;;;;;;1.15;1.15;;;;;;;8.07;66.26;101071.59;18592755;31;20135;-60
2022/11/07 21:27:14;;;;;;;0.82;0.80;;;;;;;7.76;66.43;101073.56;18585597;31;20104;-59
2022/11/07 21:37:18;;;;;;;2.30;1.70;;;;;;;7.62;67.12;101088.88;18593918;31;20446;-59
2022/11/07 21:47:22;;;;;;;1.55;1.40;;;;;;;7.75;68.11;101079.59;18597628;31;20659;-59
2022/11/07 21:57:26;;;;;;;2.05;1.95;;;;;;;7.90;68.79;101086.84;18571020;31;20118;-59
2022/11/07 22:07:29;;;;;;;1.12;1.12;;;;;;;7.95;68.52;101079.12;18601939;31;20099;-59
2022/11/07 22:17:34;;;;;;;3.33;2.47;;;;;;;7.81;68.89;101079.75;18590345;31;20130;-59
2022/11/07 22:27:37;;;;;;;1.00;0.98;;;;;;;7.86;68.12;101085.03;18590666;31;20122;-59
2022/11/07 22:37:45;;;;;;;1.60;1.42;;;;;;;7.77;67.91;101076.19;18583550;31;20205;-59
2022/11/07 22:47:48;;;;;;;0.70;0.70;;;;;;;7.65;68.16;101078.56;18590142;31;20100;-59
2022/11/07 22:57:53;;;;;;;1.67;1.62;;;;;;;7.69;68.11;101066.50;18590056;31;20114;-59
2022/11/07 23:07:56;;;;;;;1.55;1.45;;;;;;;7.70;68.37;101086.44;18606390;31;20632;-59
2022/11/07 23:18:00;;;;;;;2.35;2.15;;;;;;;7.89;68.38;101088.56;18555228;31;20204;-59
2022/11/07 23:28:06;;;;;;;0.90;0.90;;;;;;;7.88;68.83;101092.03;18559073;31;20136;-59
2022/11/07 23:38:10;;;;;;;0.90;0.90;;;;;;;7.89;68.92;101090.28;18580509;31;20391;-59
